Hlavní strana
METAR-TAF:

METAR-TAF

Letiště :

Letiště Moskva-Šeremeťjevo

Moskva-Šeremetěvo, Rusko

zeměpisná šířka: 55-58N, zeměpisná délka: 037-25E, výška: 190 m

Aktuální stav počasí

Zpráva byla vytvořena před 24 minutami, v 10:30 UTC
Západojihozápadní vítr 10 kt
Teplota 1°C
Vlhkost vzduchu 100%
Tlak 1011 hPa
Viditelnost: 4800 m
Zataženo ve výšce 400 ft
slabé mrholení, kouřmo

METAR: UUEE 251030Z 25005MPS 4800 -DZ BR OVC004 01/01 Q1011 R24L/450540 R24C/450530 NOSIG

Čas: 13:54 (10:54 UTC)

Předpověď počasí

Zpráva byla vytvořena před 3 hodinami a 2 minutami, v 07:52 UTC
Předpověď platná od 25 v 09 UTC do 26 v 09 UTC
Západní vítr 12 kt
Viditelnost: 3000 m
Zataženo ve výšce 500 ft
kouřmo
Dočasný
od 25 v 09 UTC do 26 v 06 UTC
Viditelnost: 0900 m
Zataženo ve výšce 300 ft
mrholení, mlha
Změna
od 25 v 21 UTC do 25 v 23 UTC
Jihojihozápadní vítr 10 kt

TAF: UUEE 250752Z 2509/2609 27006MPS 3000 BR OVC005 TX03/2515Z TN00/2509Z TEMPO 2509/2606 0900 DZ FG OVC003 BECMG 2521/2523 21005MPS

Stav a předpovědi počasí z více než 4 000 letišť (zprávy METAR a TAF).

Červené a žluté tečky na mapě představují dostupné meteorologické stanice.

Když kurzor umístíte na tečku, zobrazí se název stanice.

Pak kliknutím zobrazíte stav a předpověď počasí.

Chcete-li změnit mapu, kliknutím na zelené tlačítko se znaménkem +mapu přiblížíte, kliknutím na zelené tlačítko se znaménkem – mapu oddálíte a kliknutím na zelené šipky přejdete na sousední mapy.


METAR-TAF: